createdAt,value
2022-12-31T00:01:38.373Z,76.57
2022-12-31T00:04:05.406Z,74.35
2022-12-31T00:06:34.843Z,72.90
2022-12-31T00:09:06.361Z,80.38
2022-12-31T00:11:33.972Z,70.35
2022-12-31T00:14:00.663Z,72.47
2022-12-31T00:16:33.054Z,70.90
2022-12-31T00:19:00.972Z,70.53
2022-12-31T00:21:31.056Z,74.38
2022-12-31T00:23:57.909Z,71.82
2022-12-31T00:26:28.252Z,66.30
2022-12-31T00:28:56.870Z,63.03
2022-12-31T00:31:26.929Z,66.43
2022-12-31T00:33:57.820Z,67.95
2022-12-31T00:36:28.500Z,67.55
2022-12-31T00:38:57.530Z,63.03
2022-12-31T00:41:25.753Z,65.85
2022-12-31T00:43:54.368Z,61.72
2022-12-31T00:46:22.250Z,63.42
2022-12-31T00:48:49.223Z,62.00
2022-12-31T00:51:20.325Z,59.22
2022-12-31T00:53:48.912Z,57.37
2022-12-31T00:56:19.713Z,57.28
2022-12-31T00:58:47.560Z,58.33
2022-12-31T01:01:25.005Z,63.22
2022-12-31T01:03:55.969Z,64.13
2022-12-31T01:06:23.745Z,64.60
2022-12-31T01:08:51.664Z,63.45
2022-12-31T01:11:19.377Z,65.50
2022-12-31T01:13:51.203Z,65.40
2022-12-31T01:16:20.838Z,71.10
2022-12-31T01:18:47.737Z,68.72
2022-12-31T01:21:15.409Z,74.55
2022-12-31T01:23:45.408Z,74.95
2022-12-31T01:26:14.442Z,77.25
2022-12-31T01:28:41.458Z,78.30
2022-12-31T01:31:13.582Z,71.97
2022-12-31T01:33:41.587Z,73.65
2022-12-31T01:36:12.849Z,68.80
2022-12-31T01:38:39.984Z,69.00
2022-12-31T01:41:12.791Z,64.85
2022-12-31T01:43:51.185Z,69.05
2022-12-31T01:46:28.878Z,74.75
2022-12-31T01:49:21.460Z,71.30
2022-12-31T01:52:00.887Z,66.13
2022-12-31T01:54:32.673Z,74.40
2022-12-31T01:56:59.626Z,90.43
2022-12-31T01:59:28.999Z,92.95
2022-12-31T02:01:59.383Z,79.65
2022-12-31T02:04:28.118Z,85.53
2022-12-31T02:07:01.026Z,73.25
2022-12-31T02:09:29.483Z,69.63
2022-12-31T02:11:57.259Z,90.07
2022-12-31T02:14:34.802Z,83.97
2022-12-31T02:17:22.557Z,84.10
2022-12-31T02:20:27.257Z,79.10
2022-12-31T02:23:27.259Z,91.68
2022-12-31T02:26:30.561Z,85.55
2022-12-31T02:29:21.628Z,89.20
2022-12-31T02:31:59.035Z,90.07
2022-12-31T02:34:40.028Z,84.28
2022-12-31T02:37:12.430Z,91.10
2022-12-31T02:39:41.022Z,94.93
2022-12-31T02:42:07.898Z,90.85
2022-12-31T02:44:36.798Z,81.00
2022-12-31T02:47:10.624Z,85.45
2022-12-31T02:50:02.209Z,94.95
2022-12-31T02:52:47.524Z,92.45
2022-12-31T02:55:50.851Z,85.95
2022-12-31T02:59:01.150Z,80.10
2022-12-31T03:01:54.250Z,83.80
2022-12-31T03:04:32.243Z,76.47
2022-12-31T03:07:05.103Z,79.72
2022-12-31T03:09:32.479Z,82.60
2022-12-31T03:12:18.228Z,93.78
2022-12-31T03:14:47.793Z,91.35
2022-12-31T03:17:14.980Z,85.20
2022-12-31T03:20:01.508Z,95.00
2022-12-31T03:22:28.211Z,83.50
2022-12-31T03:25:29.408Z,89.28
2022-12-31T03:27:57.199Z,85.72
2022-12-31T03:30:27.620Z,86.25
2022-12-31T03:32:56.346Z,96.15
2022-12-31T03:35:24.677Z,76.45
2022-12-31T03:37:58.182Z,91.72
2022-12-31T03:40:27.158Z,85.78
2022-12-31T03:42:54.318Z,80.35
2022-12-31T03:45:24.843Z,81.65
2022-12-31T03:47:53.428Z,84.13
2022-12-31T03:50:23.768Z,80.28
2022-12-31T03:52:50.512Z,86.20
2022-12-31T03:55:17.643Z,83.70
2022-12-31T03:57:44.573Z,88.65
2022-12-31T04:00:15.270Z,80.38
2022-12-31T04:02:42.430Z,83.63
2022-12-31T04:05:09.705Z,71.93
2022-12-31T04:07:36.909Z,89.28
2022-12-31T04:10:08.709Z,74.43
2022-12-31T04:12:38.919Z,76.68
2022-12-31T04:15:19.035Z,72.20
2022-12-31T04:17:48.556Z,83.65
2022-12-31T04:20:16.364Z,73.60
2022-12-31T04:22:44.407Z,67.78
2022-12-31T04:25:11.767Z,81.55
2022-12-31T04:27:45.451Z,71.80
2022-12-31T04:30:15.322Z,72.43
2022-12-31T04:32:42.488Z,65.03
2022-12-31T04:35:11.637Z,70.03
2022-12-31T04:37:44.488Z,70.22
2022-12-31T04:40:11.507Z,66.75
2022-12-31T04:42:41.005Z,71.13
2022-12-31T04:45:09.293Z,60.28
2022-12-31T04:47:39.134Z,74.78
2022-12-31T04:50:06.364Z,63.63
2022-12-31T04:52:42.445Z,64.70
2022-12-31T04:55:10.482Z,62.90
2022-12-31T04:57:38.807Z,60.08
2022-12-31T05:00:06.632Z,62.45
2022-12-31T05:02:33.695Z,63.25
2022-12-31T05:05:00.646Z,62.78
2022-12-31T05:07:29.905Z,57.70
2022-12-31T05:09:59.437Z,62.72
2022-12-31T05:12:26.903Z,61.35
2022-12-31T05:14:53.654Z,59.45
2022-12-31T05:17:24.067Z,48.05
2022-12-31T05:19:50.806Z,50.97
2022-12-31T05:22:29.540Z,56.90
2022-12-31T05:24:59.195Z,52.65
2022-12-31T05:27:35.524Z,57.92
2022-12-31T05:30:03.304Z,56.22
2022-12-31T05:32:30.185Z,57.80
2022-12-31T05:34:58.071Z,51.45
2022-12-31T05:37:24.818Z,49.75
2022-12-31T05:39:52.004Z,51.35
2022-12-31T05:42:19.869Z,49.70
2022-12-31T05:44:49.441Z,52.53
2022-12-31T05:47:17.859Z,49.83
2022-12-31T05:49:45.066Z,53.08
2022-12-31T05:52:12.210Z,44.05
2022-12-31T05:54:39.024Z,47.67
2022-12-31T05:57:08.411Z,44.90
2022-12-31T05:59:35.118Z,45.58
2022-12-31T06:02:05.531Z,45.70
2022-12-31T06:04:32.392Z,42.35
2022-12-31T06:07:02.059Z,40.38
2022-12-31T06:09:28.864Z,47.67
2022-12-31T06:11:55.716Z,40.65
2022-12-31T06:14:22.750Z,40.58
2022-12-31T06:16:51.309Z,41.80
2022-12-31T06:19:18.229Z,45.40
2022-12-31T06:21:45.179Z,44.67
2022-12-31T06:24:12.309Z,43.42
2022-12-31T06:26:39.119Z,44.08
2022-12-31T06:29:05.844Z,40.38
2022-12-31T06:31:35.639Z,41.22
2022-12-31T06:34:05.527Z,41.20
2022-12-31T06:36:32.594Z,40.92
2022-12-31T06:38:59.496Z,45.70
2022-12-31T06:41:26.271Z,49.55
2022-12-31T06:43:53.147Z,49.78
2022-12-31T06:46:19.980Z,41.30
2022-12-31T06:48:46.959Z,43.65
2022-12-31T06:51:19.053Z,43.53
2022-12-31T06:56:32.986Z,46.95
2022-12-31T06:59:00.988Z,50.80
2022-12-31T07:01:37.564Z,49.30
2022-12-31T07:04:10.620Z,51.78
2022-12-31T07:06:51.834Z,47.05
2022-12-31T07:09:36.179Z,48.05
2022-12-31T07:12:14.268Z,40.63
2022-12-31T07:14:52.158Z,44.60
2022-12-31T07:18:10.403Z,47.20
2022-12-31T07:20:37.441Z,43.38
2022-12-31T07:23:04.997Z,48.80
2022-12-31T07:25:32.820Z,53.45
2022-12-31T07:28:20.552Z,52.38
2022-12-31T07:31:02.804Z,47.33
2022-12-31T07:33:35.545Z,45.40
2022-12-31T07:36:40.897Z,39.42
2022-12-31T07:39:16.472Z,49.63
2022-12-31T07:42:10.949Z,41.88
2022-12-31T07:45:10.439Z,41.00
2022-12-31T07:47:40.485Z,41.75
2022-12-31T07:50:15.219Z,48.55
2022-12-31T07:52:42.498Z,40.50
2022-12-31T07:55:10.846Z,41.55
2022-12-31T07:57:58.320Z,46.67
2022-12-31T08:00:26.195Z,44.60
2022-12-31T08:03:15.814Z,39.40
2022-12-31T08:06:36.046Z,44.13
2022-12-31T08:09:09.567Z,48.75
2022-12-31T08:11:46.589Z,46.28
2022-12-31T08:14:16.560Z,45.30
2022-12-31T08:16:43.718Z,48.72
2022-12-31T08:19:30.896Z,43.53
2022-12-31T08:22:09.058Z,44.42
2022-12-31T08:24:57.451Z,47.35
2022-12-31T08:28:25.409Z,50.70
2022-12-31T08:31:35.373Z,51.22
2022-12-31T08:34:52.622Z,49.60
2022-12-31T08:37:39.377Z,45.30
2022-12-31T08:40:30.373Z,48.40
2022-12-31T08:43:10.546Z,50.92
2022-12-31T08:45:52.445Z,52.85
2022-12-31T08:48:37.483Z,49.42
2022-12-31T08:51:04.729Z,54.10
2022-12-31T08:53:32.145Z,52.38
2022-12-31T08:56:17.426Z,50.65
2022-12-31T08:58:57.463Z,50.83
2022-12-31T09:01:30.425Z,54.28
2022-12-31T09:03:59.302Z,53.78
2022-12-31T09:06:52.795Z,58.30
2022-12-31T09:09:32.956Z,61.10
2022-12-31T09:12:25.725Z,64.03
2022-12-31T09:15:30.332Z,63.45
2022-12-31T09:17:58.774Z,49.40
2022-12-31T09:20:41.826Z,66.45
2022-12-31T09:23:12.888Z,69.95
2022-12-31T09:25:53.295Z,77.32
2022-12-31T09:28:23.672Z,83.65
2022-12-31T09:31:12.737Z,74.00
2022-12-31T09:33:53.056Z,79.15
2022-12-31T09:36:28.838Z,80.15
2022-12-31T09:39:11.137Z,71.03
2022-12-31T09:44:46.117Z,87.07
2022-12-31T09:47:33.305Z,84.40
2022-12-31T09:50:25.910Z,86.93
2022-12-31T09:53:27.880Z,77.35
2022-12-31T09:56:02.286Z,67.05
2022-12-31T09:58:38.049Z,81.57
2022-12-31T10:01:17.653Z,91.75
2022-12-31T10:04:06.847Z,78.80
2022-12-31T10:06:45.707Z,71.20
2022-12-31T10:09:57.506Z,73.97
2022-12-31T10:12:42.306Z,78.55
2022-12-31T10:15:24.029Z,75.80
2022-12-31T10:17:53.403Z,77.85
2022-12-31T10:20:26.071Z,82.63
2022-12-31T10:23:17.866Z,74.93
2022-12-31T10:25:54.266Z,73.88
2022-12-31T10:28:45.746Z,71.82
2022-12-31T10:31:50.039Z,76.35
2022-12-31T10:34:42.431Z,76.30
2022-12-31T10:40:02.023Z,79.55
2022-12-31T10:42:37.799Z,80.63
2022-12-31T10:45:32.762Z,80.70
2022-12-31T10:48:30.863Z,83.13
2022-12-31T10:51:19.332Z,81.03
2022-12-31T10:53:55.260Z,75.72
2022-12-31T10:56:55.644Z,68.72
2022-12-31T10:59:25.378Z,77.30
2022-12-31T11:02:01.598Z,81.85
2022-12-31T11:04:40.585Z,69.75
2022-12-31T11:07:32.715Z,73.80
2022-12-31T11:10:17.822Z,71.60
2022-12-31T11:13:02.495Z,67.45
2022-12-31T11:15:29.131Z,68.82
2022-12-31T11:17:58.974Z,67.15
2022-12-31T11:20:50.520Z,70.90
2022-12-31T11:23:32.722Z,65.85
2022-12-31T11:29:08.447Z,65.97
2022-12-31T11:32:06.997Z,74.60
2022-12-31T11:34:49.020Z,63.63
2022-12-31T11:40:15.271Z,68.90
2022-12-31T11:43:03.697Z,61.88
2022-12-31T11:46:03.001Z,60.33
2022-12-31T11:48:52.811Z,63.72
2022-12-31T11:51:38.317Z,70.78
2022-12-31T11:54:42.963Z,66.88
2022-12-31T11:57:17.717Z,61.30
2022-12-31T11:59:46.890Z,63.90
2022-12-31T12:02:35.379Z,59.13
2022-12-31T12:05:10.686Z,61.97
2022-12-31T12:07:37.935Z,60.45
2022-12-31T12:10:23.302Z,59.22
2022-12-31T12:12:54.034Z,57.83
2022-12-31T12:15:32.020Z,54.55
2022-12-31T12:18:05.328Z,56.97
2022-12-31T12:20:37.170Z,58.75
2022-12-31T12:25:44.979Z,52.05
2022-12-31T12:28:19.464Z,60.80
2022-12-31T12:30:55.428Z,61.42
2022-12-31T12:33:23.306Z,59.10
2022-12-31T12:35:50.996Z,59.38
2022-12-31T12:38:21.244Z,62.80
2022-12-31T12:41:04.004Z,63.63
2022-12-31T12:43:33.877Z,59.28
2022-12-31T12:46:06.989Z,66.78
2022-12-31T12:48:55.214Z,59.90
2022-12-31T12:51:55.826Z,67.65
2022-12-31T12:54:50.442Z,60.35
2022-12-31T12:57:25.168Z,63.50
2022-12-31T13:00:36.898Z,53.63
2022-12-31T13:03:31.063Z,62.15
2022-12-31T13:06:33.794Z,60.92
2022-12-31T13:09:23.533Z,62.30
2022-12-31T13:12:07.287Z,58.85
2022-12-31T13:14:46.969Z,64.35
2022-12-31T13:17:28.875Z,58.15
2022-12-31T13:19:55.616Z,66.25
2022-12-31T13:22:32.950Z,62.08
2022-12-31T13:25:24.038Z,62.20
2022-12-31T13:27:54.113Z,58.20
2022-12-31T13:30:30.851Z,61.17
2022-12-31T13:33:07.452Z,63.58
2022-12-31T13:35:43.476Z,63.67
2022-12-31T13:38:23.350Z,64.50
2022-12-31T13:41:12.173Z,66.05
2022-12-31T13:43:38.821Z,64.68
2022-12-31T13:46:33.673Z,64.40
2022-12-31T13:49:05.089Z,67.50
2022-12-31T13:51:44.689Z,64.57
2022-12-31T13:54:44.440Z,66.85
2022-12-31T13:57:21.545Z,62.13
2022-12-31T13:59:54.355Z,64.60
2022-12-31T14:02:59.659Z,62.92
2022-12-31T14:05:38.271Z,61.53
2022-12-31T14:08:07.193Z,57.83
2022-12-31T14:10:52.520Z,63.90
2022-12-31T14:13:50.196Z,66.60
2022-12-31T14:16:52.048Z,68.07
2022-12-31T14:19:43.415Z,65.57
2022-12-31T14:22:30.327Z,63.40
2022-12-31T14:25:02.163Z,66.07
2022-12-31T14:30:02.606Z,67.78
2022-12-31T14:32:55.204Z,69.50
2022-12-31T14:35:30.596Z,68.15
2022-12-31T14:38:34.423Z,67.78
2022-12-31T14:41:23.861Z,64.47
2022-12-31T14:44:09.145Z,70.75
2022-12-31T14:46:58.592Z,65.50
2022-12-31T14:49:59.432Z,67.50
2022-12-31T14:52:47.669Z,71.75
2022-12-31T14:55:18.040Z,67.10
2022-12-31T14:58:25.984Z,66.53
2022-12-31T15:00:39.051Z,65.75
2022-12-31T15:03:15.003Z,67.10
2022-12-31T15:06:03.760Z,73.63
2022-12-31T15:08:54.768Z,66.22
2022-12-31T15:11:43.325Z,67.28
2022-12-31T15:14:51.286Z,79.20
2022-12-31T15:17:47.406Z,68.50
2022-12-31T15:20:48.584Z,70.22
2022-12-31T15:23:24.324Z,73.55
2022-12-31T15:26:00.177Z,65.68
2022-12-31T15:28:35.644Z,72.45
2022-12-31T15:31:05.161Z,69.50
2022-12-31T15:33:40.795Z,77.82
2022-12-31T15:36:12.471Z,74.57
2022-12-31T15:38:42.223Z,70.63
2022-12-31T15:41:42.904Z,71.68
2022-12-31T15:44:40.544Z,76.60
2022-12-31T15:47:13.420Z,72.25
2022-12-31T15:49:44.307Z,66.60
2022-12-31T15:52:21.100Z,82.50
2022-12-31T15:54:54.954Z,73.22
2022-12-31T15:57:33.937Z,83.15
2022-12-31T16:00:05.988Z,72.20
2022-12-31T16:02:33.121Z,83.53
2022-12-31T16:05:01.954Z,89.63
2022-12-31T16:07:29.166Z,94.53
2022-12-31T16:09:59.170Z,81.18
2022-12-31T16:12:33.182Z,89.68
2022-12-31T16:15:01.808Z,101.05
2022-12-31T16:17:34.767Z,93.85
2022-12-31T16:20:20.720Z,85.07
2022-12-31T16:22:53.247Z,88.78
2022-12-31T16:25:36.570Z,91.78
2022-12-31T16:28:07.007Z,82.35
2022-12-31T16:30:37.571Z,84.75
2022-12-31T16:33:07.129Z,82.80
2022-12-31T16:35:36.782Z,92.15
2022-12-31T16:38:16.840Z,91.55
2022-12-31T16:41:02.009Z,91.22
2022-12-31T16:43:31.053Z,95.43
2022-12-31T16:46:10.563Z,87.93
2022-12-31T16:48:38.564Z,85.00
2022-12-31T16:51:06.470Z,96.90
2022-12-31T16:53:36.873Z,88.18
2022-12-31T16:56:11.005Z,93.93
2022-12-31T16:58:45.255Z,85.55
2022-12-31T17:03:47.410Z,90.22
2022-12-31T17:06:20.103Z,91.82
2022-12-31T17:09:05.144Z,103.15
2022-12-31T17:11:36.483Z,97.55
2022-12-31T17:14:09.620Z,98.25
2022-12-31T17:17:07.273Z,92.18
2022-12-31T17:19:39.707Z,105.85
2022-12-31T17:22:35.896Z,96.72
2022-12-31T17:25:08.722Z,94.68
2022-12-31T17:27:39.763Z,96.93
2022-12-31T17:30:40.831Z,94.03
2022-12-31T17:33:11.944Z,93.25
2022-12-31T17:35:45.376Z,102.15
2022-12-31T17:38:29.507Z,98.57
2022-12-31T17:41:15.334Z,107.80
2022-12-31T17:43:42.754Z,110.00
2022-12-31T17:46:12.919Z,106.22
2022-12-31T17:48:43.225Z,112.45
2022-12-31T17:51:10.374Z,104.40
2022-12-31T17:53:37.373Z,113.15
2022-12-31T17:56:07.485Z,111.40
2022-12-31T17:58:54.074Z,107.68
2022-12-31T18:01:23.072Z,113.70
2022-12-31T18:03:50.354Z,102.97
2022-12-31T18:06:19.775Z,114.43
2022-12-31T18:08:49.813Z,113.38
2022-12-31T18:11:20.446Z,107.00
2022-12-31T18:13:49.521Z,107.22
2022-12-31T18:16:17.032Z,102.20
2022-12-31T18:18:45.603Z,113.00
2022-12-31T18:21:28.165Z,118.80
2022-12-31T18:26:25.177Z,112.03
2022-12-31T18:28:52.470Z,104.43
2022-12-31T18:31:25.756Z,105.25
2022-12-31T18:33:55.978Z,105.90
2022-12-31T18:36:25.915Z,97.22
2022-12-31T18:38:53.383Z,103.00
2022-12-31T18:41:30.537Z,95.45
2022-12-31T18:44:00.473Z,91.60
2022-12-31T18:46:27.897Z,96.45
2022-12-31T18:48:54.675Z,106.43
2022-12-31T18:51:31.499Z,89.78
2022-12-31T18:54:02.539Z,97.05
2022-12-31T18:56:32.381Z,94.60
2022-12-31T18:58:59.983Z,88.90
2022-12-31T19:01:35.696Z,92.65
2022-12-31T19:04:07.625Z,90.97
2022-12-31T19:06:34.383Z,95.85
2022-12-31T19:09:06.365Z,102.25
2022-12-31T19:11:45.164Z,105.95
2022-12-31T19:14:21.769Z,92.10
2022-12-31T19:16:49.670Z,96.72
2022-12-31T19:19:17.019Z,103.05
2022-12-31T19:21:44.304Z,107.20
2022-12-31T19:24:14.094Z,95.82
2022-12-31T19:26:43.539Z,102.13
2022-12-31T19:29:30.810Z,108.85
2022-12-31T19:32:03.324Z,102.80
2022-12-31T19:34:30.261Z,101.40
2022-12-31T19:36:58.547Z,100.32
2022-12-31T19:39:25.262Z,110.95
2022-12-31T19:41:58.775Z,103.55
2022-12-31T19:44:26.726Z,101.85
2022-12-31T19:46:56.261Z,104.72
2022-12-31T19:49:24.124Z,94.07
2022-12-31T19:51:51.015Z,101.57
2022-12-31T19:54:17.853Z,106.20
2022-12-31T19:56:44.849Z,110.25
2022-12-31T19:59:11.944Z,113.97
2022-12-31T20:01:38.925Z,108.85
2022-12-31T20:04:09.059Z,112.45
2022-12-31T20:06:35.864Z,113.20
2022-12-31T20:09:03.301Z,105.05
2022-12-31T20:11:30.052Z,109.75
2022-12-31T20:14:00.072Z,113.97
2022-12-31T20:16:32.860Z,105.65
2022-12-31T20:19:05.591Z,113.03
2022-12-31T20:21:36.246Z,117.88
2022-12-31T20:24:03.098Z,114.25
2022-12-31T20:26:30.340Z,117.75
2022-12-31T20:28:57.383Z,111.78
2022-12-31T20:31:25.591Z,108.20
2022-12-31T20:33:54.409Z,108.75
2022-12-31T20:36:21.953Z,119.32
2022-12-31T20:38:48.843Z,109.65
2022-12-31T20:41:19.308Z,109.80
2022-12-31T20:43:46.960Z,111.63
2022-12-31T20:46:21.727Z,95.18
2022-12-31T20:48:52.673Z,106.38
2022-12-31T20:51:22.355Z,111.35
2022-12-31T20:54:00.557Z,97.93
2022-12-31T20:56:31.022Z,105.20
2022-12-31T20:59:04.727Z,102.57
2022-12-31T21:01:55.692Z,102.25
2022-12-31T21:04:19.548Z,107.20
2022-12-31T21:06:48.157Z,110.78
2022-12-31T21:09:15.950Z,110.65
2022-12-31T21:12:15.732Z,115.20
2022-12-31T21:14:45.336Z,121.78
2022-12-31T21:17:22.020Z,96.93
2022-12-31T21:19:48.703Z,105.85
2022-12-31T21:22:15.834Z,103.13
2022-12-31T21:24:42.936Z,109.70
2022-12-31T21:27:12.963Z,117.78
2022-12-31T21:30:17.196Z,119.43
2022-12-31T21:32:32.858Z,113.68
2022-12-31T21:35:40.370Z,121.57
2022-12-31T21:37:58.923Z,116.75
2022-12-31T21:40:29.403Z,117.20
2022-12-31T21:42:56.274Z,114.07
2022-12-31T21:45:23.147Z,121.07
2022-12-31T21:48:08.965Z,124.22
2022-12-31T21:50:36.365Z,121.40
2022-12-31T21:53:03.281Z,119.72
2022-12-31T21:55:48.538Z,126.15
2022-12-31T21:58:32.028Z,119.43
2022-12-31T22:01:18.721Z,119.43
2022-12-31T22:03:46.100Z,117.47
2022-12-31T22:06:22.680Z,125.80
2022-12-31T22:08:51.988Z,143.70
2022-12-31T22:11:20.460Z,155.55
2022-12-31T22:13:49.565Z,129.68
2022-12-31T22:16:17.325Z,131.90
2022-12-31T22:18:46.983Z,140.48
2022-12-31T22:21:19.230Z,137.00
2022-12-31T22:23:49.358Z,131.82
2022-12-31T22:26:18.501Z,133.93
2022-12-31T22:28:46.656Z,140.68
2022-12-31T22:31:17.219Z,140.13
2022-12-31T22:33:48.098Z,133.43
2022-12-31T22:36:20.024Z,157.18
2022-12-31T22:38:47.569Z,166.73
2022-12-31T22:41:20.100Z,168.43
2022-12-31T22:43:50.061Z,172.65
2022-12-31T22:46:19.827Z,162.95
2022-12-31T22:48:47.161Z,152.25
2022-12-31T22:51:15.103Z,155.32
2022-12-31T22:53:43.573Z,161.85
2022-12-31T22:56:16.334Z,158.45
2022-12-31T22:58:46.512Z,146.73
2022-12-31T23:01:16.651Z,152.23
2022-12-31T23:03:43.980Z,160.73
2022-12-31T23:06:11.098Z,161.38
2022-12-31T23:08:40.910Z,161.32
2022-12-31T23:11:09.810Z,187.98
2022-12-31T23:13:59.276Z,214.48
2022-12-31T23:16:48.264Z,199.10
2022-12-31T23:19:34.865Z,205.27
2022-12-31T23:25:05.496Z,235.52
2022-12-31T23:27:32.344Z,323.02
2022-12-31T23:29:59.210Z,335.92
2022-12-31T23:32:26.864Z,352.23
2022-12-31T23:34:57.700Z,383.15
2022-12-31T23:37:24.908Z,391.20
2022-12-31T23:39:51.754Z,380.17
2022-12-31T23:42:18.558Z,391.38
2022-12-31T23:44:45.446Z,393.65
2022-12-31T23:47:15.521Z,375.50
2022-12-31T23:49:42.334Z,372.73
2022-12-31T23:52:12.246Z,380.75
2022-12-31T23:54:39.275Z,371.33
2022-12-31T23:57:06.263Z,367.88
2022-12-31T23:59:38.543Z,385.63
